Time;durP1;ratioP1;P1;durP2;ratioP2;P2;SDS_P1;SDS_P2;PMS_P1;PMS_P2;Temp;Humidity;BMP_temperature;BMP_pressure;BME280_temperature;BME280_humidity;BME280_pressure;Samples;Min_cycle;Max_cycle;Signal;HPM_P1;HPM_P2
2022/04/21 00:01:24;;;;;;;6.78;3.97;;;8.60;99.90;;;;;;4738166;28;9999829;-75
2022/04/21 00:03:49;;;;;;;5.75;3.88;;;8.60;99.90;;;;;;5090692;28;20012;-76
2022/04/21 00:06:16;;;;;;;8.10;3.80;;;8.60;99.90;;;;;;5087403;28;20036;-76
2022/04/21 00:08:42;;;;;;;7.10;4.18;;;8.60;99.90;;;;;;5101228;28;20027;-75
2022/04/21 00:11:07;;;;;;;5.03;3.65;;;8.50;99.90;;;;;;5101332;28;20034;-75
2022/04/21 00:13:34;;;;;;;7.22;4.03;;;8.50;99.90;;;;;;5100565;28;20081;-76
2022/04/21 00:15:59;;;;;;;8.07;4.20;;;8.50;99.90;;;;;;5091234;28;20039;-75
2022/04/21 00:18:25;;;;;;;7.85;4.10;;;8.50;99.90;;;;;;5093942;28;20032;-75
2022/04/21 00:20:51;;;;;;;6.47;4.43;;;8.50;99.90;;;;;;5091463;28;20027;-76
2022/04/21 00:23:29;;;;;;;7.82;4.50;;;8.40;99.90;;;;;;5092313;28;20040;-76
2022/04/21 00:25:58;;;;;;;8.75;5.05;;;8.50;99.90;;;;;;5095397;28;20080;-75
2022/04/21 00:28:25;;;;;;;7.43;4.85;;;8.50;99.90;;;;;;5100740;28;20020;-76
2022/04/21 00:30:50;;;;;;;6.82;4.47;;;8.40;99.90;;;;;;5104808;28;20048;-76
2022/04/21 00:33:17;;;;;;;6.85;4.78;;;8.50;99.90;;;;;;5095030;28;20085;-76
2022/04/21 00:35:42;;;;;;;8.63;4.97;;;8.50;99.90;;;;;;5084330;28;20024;-75
2022/04/21 00:38:08;;;;;;;7.40;5.05;;;8.50;99.90;;;;;;5094608;28;20047;-75
2022/04/21 00:40:34;;;;;;;8.77;4.82;;;8.40;99.90;;;;;;5095921;28;20468;-76
2022/04/21 00:43:00;;;;;;;12.50;5.20;;;8.40;99.90;;;;;;5091407;28;20032;-76
2022/04/21 00:45:28;;;;;;;9.68;4.88;;;8.40;99.90;;;;;;5091814;28;20074;-76
2022/04/21 00:47:56;;;;;;;8.88;4.95;;;8.40;99.90;;;;;;5092957;28;20034;-76
2022/04/21 00:50:28;;;;;;;7.90;4.50;;;8.40;99.90;;;;;;5104201;28;20028;-76
2022/04/21 00:52:55;;;;;;;8.07;5.13;;;8.40;99.90;;;;;;5093706;28;20024;-76
2022/04/21 00:55:21;;;;;;;9.45;4.80;;;8.30;99.90;;;;;;5085512;28;20032;-76
2022/04/21 00:57:50;;;;;;;6.50;4.68;;;8.30;99.90;;;;;;5094181;28;20064;-75
2022/04/21 01:00:16;;;;;;;8.25;4.90;;;8.30;99.90;;;;;;5087900;28;20089;-76
2022/04/21 01:02:46;;;;;;;8.13;5.28;;;8.30;99.90;;;;;;5090026;28;20114;-76
2022/04/21 01:05:33;;;;;;;8.15;5.18;;;8.30;99.90;;;;;;5087526;28;20536;-76
2022/04/21 01:08:02;;;;;;;8.73;5.15;;;8.30;99.90;;;;;;5089194;28;20081;-76
2022/04/21 01:10:30;;;;;;;7.97;5.00;;;8.30;99.90;;;;;;5089769;28;20480;-76
2022/04/21 01:12:56;;;;;;;6.47;4.57;;;8.30;99.90;;;;;;5094813;28;20077;-75
2022/04/21 01:15:22;;;;;;;7.85;4.65;;;8.20;99.90;;;;;;5090058;28;20039;-76
2022/04/21 01:17:48;;;;;;;5.93;4.45;;;8.20;99.90;;;;;;5098274;28;20028;-76
2022/04/21 01:20:16;;;;;;;7.07;4.90;;;8.20;99.90;;;;;;5097897;28;20028;-76
2022/04/21 01:22:42;;;;;;;5.72;4.38;;;8.10;99.90;;;;;;5092130;28;20063;-76
2022/04/21 01:25:08;;;;;;;5.57;4.25;;;8.00;99.90;;;;;;5092616;28;20686;-75
2022/04/21 01:27:35;;;;;;;9.32;4.53;;;8.00;99.90;;;;;;5087696;28;20548;-75
2022/04/21 01:30:04;;;;;;;6.68;4.40;;;8.00;99.90;;;;;;5089830;28;20377;-75
2022/04/21 01:32:34;;;;;;;7.18;4.65;;;8.00;99.90;;;;;;5093856;28;20693;-75
2022/04/21 01:35:00;;;;;;;8.27;4.75;;;8.00;99.90;;;;;;5099224;28;20047;-75
2022/04/21 01:42:53;;;;;;;10.27;4.68;;;7.80;99.90;;;;;;5088824;28;20031;-76
2022/04/21 01:45:19;;;;;;;7.38;4.22;;;7.80;99.90;;;;;;5092806;28;20044;-76
2022/04/21 01:47:45;;;;;;;6.85;4.15;;;7.70;99.90;;;;;;5087718;28;20028;-76
2022/04/21 01:50:10;;;;;;;8.15;4.93;;;7.70;99.90;;;;;;5094934;28;20034;-76
2022/04/21 01:52:37;;;;;;;7.47;4.78;;;7.50;99.90;;;;;;5092086;28;20484;-76
2022/04/21 01:55:04;;;;;;;8.05;5.57;;;7.40;99.90;;;;;;5086708;28;20023;-76
2022/04/21 01:57:29;;;;;;;8.43;5.70;;;7.20;99.90;;;;;;5095788;28;20042;-76
2022/04/21 01:59:55;;;;;;;8.25;6.07;;;7.10;99.90;;;;;;5092610;28;20024;-76
2022/04/21 02:02:20;;;;;;;7.55;5.30;;;6.90;99.90;;;;;;5092949;28;20085;-76
2022/04/21 02:04:46;;;;;;;8.52;5.25;;;6.80;99.90;;;;;;5087185;28;20024;-75
2022/04/21 02:07:14;;;;;;;6.50;5.20;;;6.70;99.90;;;;;;5087707;28;20119;-76
2022/04/21 02:09:40;;;;;;;7.22;5.00;;;6.60;99.90;;;;;;5092723;28;20039;-76
2022/04/21 02:12:06;;;;;;;6.20;4.63;;;6.60;99.90;;;;;;5088519;28;20035;-76
2022/04/21 02:14:33;;;;;;;7.38;4.85;;;6.60;99.90;;;;;;5084912;28;20028;-76
2022/04/21 02:16:59;;;;;;;7.32;4.40;;;6.60;99.90;;;;;;5098160;28;20027;-76
2022/04/21 02:19:25;;;;;;;5.55;4.30;;;6.60;99.90;;;;;;5083087;28;20027;-75
2022/04/21 02:21:51;;;;;;;8.25;4.53;;;6.70;99.90;;;;;;5089990;28;20500;-76
2022/04/21 02:24:16;;;;;;;7.63;4.43;;;6.80;99.90;;;;;;5090117;28;20165;-76
2022/04/21 02:26:42;;;;;;;6.30;4.43;;;6.90;99.90;;;;;;5087348;28;20118;-76
2022/04/21 02:29:07;;;;;;;5.63;4.28;;;7.00;99.90;;;;;;5095417;28;20019;-76
2022/04/21 02:31:33;;;;;;;6.82;4.20;;;7.10;99.90;;;;;;5098646;28;20493;-75
2022/04/21 02:33:58;;;;;;;6.30;4.60;;;7.20;99.90;;;;;;5091778;28;20106;-76
2022/04/21 02:36:24;;;;;;;7.00;4.20;;;7.20;99.90;;;;;;5089402;28;20032;-76
2022/04/21 02:38:49;;;;;;;6.13;4.28;;;7.20;99.90;;;;;;5091620;28;20169;-76
2022/04/21 02:41:16;;;;;;;8.82;4.80;;;7.10;99.90;;;;;;5090967;28;20024;-76
2022/04/21 02:43:41;;;;;;;10.25;5.00;;;7.10;99.90;;;;;;5088093;28;20576;-76
2022/04/21 02:46:09;;;;;;;9.55;5.25;;;7.10;99.90;;;;;;5092979;28;20051;-76
2022/04/21 02:48:35;;;;;;;9.88;5.10;;;7.20;99.90;;;;;;5089561;28;20020;-76
2022/04/21 02:51:01;;;;;;;10.55;4.72;;;7.20;99.90;;;;;;5101435;28;20039;-76
2022/04/21 02:58:55;;;;;;;8.15;4.85;;;7.20;99.90;;;;;;5099717;28;20101;-76
2022/04/21 03:01:20;;;;;;;6.72;4.72;;;7.30;99.90;;;;;;5099860;28;20301;-76
2022/04/21 03:03:46;;;;;;;9.68;5.05;;;7.30;99.90;;;;;;5099077;28;20103;-75
2022/04/21 03:06:12;;;;;;;9.98;4.97;;;7.20;99.90;;;;;;5090598;28;20032;-76
2022/04/21 03:08:38;;;;;;;9.55;5.07;;;7.20;99.90;;;;;;5097460;28;20027;-76
2022/04/21 03:11:03;;;;;;;10.77;4.90;;;7.20;99.90;;;;;;5093019;28;20488;-76
2022/04/21 03:13:29;;;;;;;9.40;4.72;;;7.20;99.90;;;;;;5093411;28;20019;-76
2022/04/21 03:15:55;;;;;;;8.68;5.03;;;7.20;99.90;;;;;;5094926;28;20118;-76
2022/04/21 03:18:20;;;;;;;12.55;5.10;;;7.20;99.90;;;;;;5101240;28;20066;-76
2022/04/21 03:26:17;;;;;;;12.30;5.07;;;7.00;99.90;;;;;;5090682;28;20084;-76
2022/04/21 03:28:43;;;;;;;10.40;5.40;;;6.90;99.90;;;;;;5096481;28;20048;-76
2022/04/21 03:31:09;;;;;;;12.27;5.50;;;6.90;99.90;;;;;;5099600;28;20731;-76
2022/04/21 03:33:35;;;;;;;13.30;5.32;;;6.90;99.90;;;;;;5097436;28;20081;-76
2022/04/21 03:36:00;;;;;;;6.72;5.13;;;7.00;99.90;;;;;;5092621;28;20058;-75
2022/04/21 03:38:26;;;;;;;9.32;5.50;;;7.00;99.90;;;;;;5093533;28;20040;-75
2022/04/21 03:40:51;;;;;;;9.70;4.97;;;7.00;99.90;;;;;;5088704;28;20032;-75
2022/04/21 03:43:17;;;;;;;7.95;5.07;;;7.00;99.90;;;;;;5092383;28;20035;-76
2022/04/21 03:45:42;;;;;;;8.07;5.38;;;7.10;99.90;;;;;;5097933;28;20031;-75
2022/04/21 03:48:08;;;;;;;7.40;4.65;;;7.00;99.90;;;;;;5091402;28;20162;-76
2022/04/21 03:50:34;;;;;;;9.18;5.60;;;7.00;99.90;;;;;;5086949;28;20475;-76
2022/04/21 03:53:00;;;;;;;8.10;5.03;;;7.00;99.90;;;;;;5093967;28;20125;-75
2022/04/21 03:55:26;;;;;;;9.02;5.07;;;7.00;99.90;;;;;;5088649;28;20487;-76
2022/04/21 03:57:51;;;;;;;11.50;5.53;;;7.00;99.90;;;;;;5084444;28;20035;-75
2022/04/21 04:00:18;;;;;;;9.63;5.55;;;7.00;99.90;;;;;;5094483;28;20695;-76
2022/04/21 04:02:43;;;;;;;8.52;5.65;;;7.00;99.90;;;;;;5088810;28;20136;-75
2022/04/21 04:05:09;;;;;;;9.23;5.45;;;6.90;99.90;;;;;;5086936;28;20070;-75
2022/04/21 04:13:03;;;;;;;12.57;5.30;;;7.00;99.90;;;;;;5094726;28;20591;-75
2022/04/21 04:15:29;;;;;;;7.03;4.95;;;7.00;99.90;;;;;;5082949;28;20158;-76
2022/04/21 04:17:54;;;;;;;10.90;5.20;;;7.00;99.90;;;;;;5095089;28;20034;-75
2022/04/21 04:20:20;;;;;;;9.45;4.97;;;6.90;99.90;;;;;;5090433;28;20032;-75
2022/04/21 04:22:46;;;;;;;9.40;5.00;;;6.90;99.90;;;;;;5090593;28;20024;-76
2022/04/21 04:25:11;;;;;;;11.93;5.72;;;6.90;99.90;;;;;;5093148;28;20062;-76
2022/04/21 04:27:37;;;;;;;9.23;4.70;;;6.90;99.90;;;;;;5097321;28;20055;-76
2022/04/21 04:30:05;;;;;;;7.95;4.88;;;6.90;99.90;;;;;;5092089;28;20032;-75
2022/04/21 04:32:31;;;;;;;7.03;5.18;;;6.90;99.90;;;;;;5103388;28;20057;-76
2022/04/21 04:34:56;;;;;;;8.85;5.15;;;6.90;99.90;;;;;;5097292;28;20480;-75
2022/04/21 04:37:22;;;;;;;8.73;5.25;;;6.90;99.90;;;;;;5097921;28;20031;-76
2022/04/21 04:39:47;;;;;;;8.05;5.25;;;6.90;99.90;;;;;;5092964;28;20036;-76
2022/04/21 04:42:16;;;;;;;10.88;5.32;;;7.00;99.90;;;;;;5095492;28;20035;-75
2022/04/21 04:44:42;;;;;;;10.95;5.15;;;7.00;99.90;;;;;;5092353;28;20562;-75
2022/04/21 04:47:07;;;;;;;7.53;5.18;;;7.10;99.90;;;;;;5090478;28;20119;-76
2022/04/21 04:49:33;;;;;;;8.60;5.45;;;7.10;99.90;;;;;;5085724;28;20031;-77
2022/04/21 04:51:59;;;;;;;10.90;5.78;;;7.20;99.90;;;;;;5097087;28;20024;-76
2022/04/21 04:54:25;;;;;;;8.75;5.40;;;7.20;99.90;;;;;;5092174;28;20023;-76
2022/04/21 04:56:51;;;;;;;9.68;6.07;;;7.10;99.90;;;;;;5092213;28;20019;-76
2022/04/21 04:59:17;;;;;;;10.15;5.95;;;7.10;99.90;;;;;;5088509;28;20023;-75
2022/04/21 05:01:48;;;;;;;10.43;5.40;;;7.10;99.90;;;;;;5088911;28;20056;-75
2022/04/21 05:04:15;;;;;;;11.50;5.80;;;7.10;99.90;;;;;;5093839;28;20055;-75
2022/04/21 05:06:48;;;;;;;10.20;5.75;;;7.10;99.90;;;;;;5088498;28;20027;-75
2022/04/21 05:09:22;;;;;;;11.32;5.78;;;7.10;99.90;;;;;;4734167;28;10000389;-75
2022/04/21 05:11:53;;;;;;;9.68;5.93;;;7.20;99.90;;;;;;5087698;28;20749;-75
2022/04/21 05:14:19;;;;;;;10.88;5.93;;;7.20;99.90;;;;;;5093868;28;20336;-75
2022/04/21 05:16:45;;;;;;;9.27;5.40;;;7.30;99.90;;;;;;5086971;28;20027;-75
2022/04/21 05:19:16;;;;;;;7.22;5.20;;;7.30;99.90;;;;;;5094065;28;20032;-75
2022/04/21 05:21:43;;;;;;;8.98;5.40;;;7.40;99.90;;;;;;5087002;28;20028;-75
2022/04/21 05:24:10;;;;;;;8.70;4.95;;;7.40;99.90;;;;;;5083276;28;21024;-76
2022/04/21 05:26:40;;;;;;;8.25;5.03;;;7.50;99.90;;;;;;5078398;28;20028;-76
2022/04/21 05:32:02;;;;;;;9.52;5.70;;;7.40;99.90;;;;;;5087953;28;20106;-76
2022/04/21 05:34:29;;;;;;;8.40;5.43;;;7.40;99.90;;;;;;5090954;28;20498;-76
2022/04/21 05:36:56;;;;;;;8.93;5.70;;;7.40;99.90;;;;;;5087611;28;20034;-76
2022/04/21 05:39:23;;;;;;;9.68;6.05;;;7.40;99.90;;;;;;5101334;28;20216;-76
2022/04/21 05:41:52;;;;;;;8.32;5.55;;;7.50;99.90;;;;;;5092527;28;20039;-77
2022/04/21 05:44:18;;;;;;;9.50;5.80;;;7.60;99.90;;;;;;5087853;28;20055;-76
2022/04/21 05:46:44;;;;;;;8.63;5.78;;;7.60;99.90;;;;;;5090921;28;20040;-76
2022/04/21 05:49:10;;;;;;;9.32;5.32;;;7.70;99.90;;;;;;5088841;28;20024;-76
2022/04/21 05:51:37;;;;;;;11.50;6.35;;;7.70;99.90;;;;;;5091952;28;20134;-75
2022/04/21 05:54:05;;;;;;;9.85;6.30;;;7.70;99.90;;;;;;5097585;28;20019;-76
2022/04/21 05:56:32;;;;;;;9.35;6.10;;;7.70;99.90;;;;;;5083967;28;20034;-76
2022/04/21 05:58:58;;;;;;;10.27;6.32;;;7.70;99.90;;;;;;5092776;28;20035;-76
2022/04/21 06:01:25;;;;;;;8.88;6.00;;;7.80;99.90;;;;;;5097016;28;20668;-76
2022/04/21 06:03:52;;;;;;;9.73;5.90;;;7.80;99.90;;;;;;5091748;28;20035;-76
2022/04/21 06:06:18;;;;;;;10.75;6.35;;;7.90;99.90;;;;;;5101704;28;20052;-76
2022/04/21 06:08:45;;;;;;;8.43;6.32;;;7.90;99.90;;;;;;5091731;28;20036;-76
2022/04/21 06:11:14;;;;;;;15.32;6.53;;;8.00;99.90;;;;;;5090751;28;20035;-76
2022/04/21 06:13:41;;;;;;;11.27;6.38;;;8.00;99.90;;;;;;5083926;28;20035;-76
2022/04/21 06:16:07;;;;;;;12.80;6.90;;;8.00;99.90;;;;;;5095855;28;20027;-77
2022/04/21 06:18:35;;;;;;;11.38;6.35;;;8.10;99.90;;;;;;5092886;28;20024;-76
2022/04/21 06:21:01;;;;;;;11.43;5.88;;;8.10;99.90;;;;;;5092294;28;20028;-76
2022/04/21 06:23:27;;;;;;;7.82;5.47;;;8.20;99.90;;;;;;5091393;28;20784;-77
2022/04/21 06:25:58;;;;;;;9.05;5.72;;;8.20;99.90;;;;;;5094425;28;20024;-76
2022/04/21 06:28:28;;;;;;;10.90;6.15;;;8.20;99.90;;;;;;5092376;28;20058;-76
2022/04/21 06:30:54;;;;;;;13.38;5.90;;;8.20;99.90;;;;;;5076813;28;20622;-76
2022/04/21 06:33:20;;;;;;;10.82;5.90;;;8.20;99.90;;;;;;5074042;28;20032;-76
2022/04/21 06:35:46;;;;;;;12.00;6.03;;;8.20;99.90;;;;;;5087645;28;20328;-76
2022/04/21 06:38:12;;;;;;;9.13;5.90;;;8.30;99.90;;;;;;5084612;28;20024;-76
2022/04/21 06:40:38;;;;;;;9.32;5.60;;;8.30;99.90;;;;;;5091029;28;20480;-76
2022/04/21 06:48:01;;;;;;;12.38;6.63;;;8.30;99.90;;;;;;5086717;28;20046;-76
2022/04/21 06:48:36;;;;;;;13.73;6.63;;;8.40;99.90;;;;;;5092008;28;20486;-77
2022/04/21 06:51:02;;;;;;;11.85;6.60;;;8.40;99.90;;;;;;5090743;28;20126;-76
2022/04/21 06:53:29;;;;;;;13.95;6.78;;;8.50;99.90;;;;;;5092319;28;20610;-77
2022/04/21 06:55:55;;;;;;;15.75;7.38;;;8.50;99.90;;;;;;5088603;28;20036;-76
2022/04/21 06:58:21;;;;;;;15.18;7.07;;;8.50;99.90;;;;;;5090830;28;20027;-77
2022/04/21 07:00:47;;;;;;;14.60;7.28;;;8.50;99.90;;;;;;5090541;28;20061;-76
2022/04/21 07:03:13;;;;;;;11.18;6.63;;;8.60;99.90;;;;;;5089984;28;20063;-76
2022/04/21 07:05:39;;;;;;;10.95;6.90;;;8.60;99.90;;;;;;5082526;28;20062;-76
2022/04/21 07:08:04;;;;;;;11.30;7.03;;;8.60;99.90;;;;;;5086200;28;20024;-77
2022/04/21 07:10:30;;;;;;;11.90;6.28;;;8.60;99.90;;;;;;5092768;28;20101;-76
2022/04/21 07:12:56;;;;;;;10.68;6.85;;;8.60;99.90;;;;;;5092382;28;20479;-76
2022/04/21 07:15:21;;;;;;;11.90;6.57;;;8.60;99.90;;;;;;5091196;28;20243;-76
2022/04/21 07:17:47;;;;;;;10.15;6.43;;;8.60;99.90;;;;;;5089406;28;20057;-76
2022/04/21 07:20:13;;;;;;;14.48;6.40;;;8.60;99.90;;;;;;5086658;28;20111;-76
2022/04/21 07:22:39;;;;;;;9.98;6.43;;;8.60;99.90;;;;;;5094399;28;20039;-76
2022/04/21 07:25:08;;;;;;;10.73;6.05;;;8.60;99.90;;;;;;5085019;28;20648;-76
2022/04/21 07:27:34;;;;;;;12.95;6.30;;;8.60;99.90;;;;;;5086086;28;20085;-76
2022/04/21 07:30:01;;;;;;;13.75;7.05;;;8.60;99.90;;;;;;5090156;28;20486;-76
2022/04/21 07:32:27;;;;;;;13.95;6.18;;;8.60;99.90;;;;;;5097929;28;20055;-76
2022/04/21 07:34:52;;;;;;;9.65;5.75;;;8.70;99.90;;;;;;5085669;28;20396;-76
2022/04/21 07:37:18;;;;;;;8.88;6.20;;;8.70;99.90;;;;;;5089095;28;20085;-76
2022/04/21 07:39:43;;;;;;;11.32;6.60;;;8.80;99.90;;;;;;5091119;28;20492;-76
2022/04/21 07:42:10;;;;;;;9.18;5.97;;;8.80;99.90;;;;;;5089491;28;20085;-76
2022/04/21 07:44:36;;;;;;;10.18;5.75;;;8.90;99.90;;;;;;5090870;28;20047;-75
2022/04/21 07:47:04;;;;;;;10.23;6.03;;;8.90;99.90;;;;;;5094541;28;20046;-75
2022/04/21 07:49:45;;;;;;;7.47;5.22;;;9.00;99.90;;;;;;5094385;28;20078;-75
2022/04/21 07:55:19;;;;;;;12.00;6.15;;;9.30;99.90;;;;;;5086647;28;20031;-75
2022/04/21 07:57:47;;;;;;;10.05;5.82;;;9.30;99.90;;;;;;5089207;28;20420;-75
2022/04/21 08:00:14;;;;;;;9.23;6.00;;;9.40;99.90;;;;;;5096713;28;20031;-75
2022/04/21 08:02:42;;;;;;;8.38;6.00;;;9.40;99.90;;;;;;5089512;28;20031;-75
2022/04/21 08:05:11;;;;;;;13.73;6.28;;;9.40;99.90;;;;;;5103483;28;20187;-75
2022/04/21 08:07:36;;;;;;;8.90;6.18;;;9.40;99.90;;;;;;5103344;28;20038;-75
2022/04/21 08:10:04;;;;;;;11.43;5.80;;;9.50;99.90;;;;;;5089042;28;20028;-75
2022/04/21 08:12:39;;;;;;;15.35;6.40;;;9.40;99.90;;;;;;5091385;28;20392;-75
2022/04/21 08:15:06;;;;;;;9.88;6.25;;;9.40;99.90;;;;;;5104463;28;20743;-75
2022/04/21 08:17:31;;;;;;;11.18;6.15;;;9.50;99.90;;;;;;5101214;28;20036;-75
2022/04/21 08:19:57;;;;;;;9.60;5.90;;;9.50;99.90;;;;;;5088085;28;20542;-75
2022/04/21 08:22:23;;;;;;;9.88;6.00;;;9.50;99.90;;;;;;5104822;28;20061;-75
2022/04/21 08:33:01;;;;;;;9.60;6.18;;;9.80;99.90;;;;;;5096620;28;20037;-75
2022/04/21 08:35:26;;;;;;;9.05;5.53;;;9.90;99.90;;;;;;5097267;28;20681;-75
2022/04/21 08:37:52;;;;;;;9.23;5.68;;;9.90;99.90;;;;;;5091124;28;20078;-75
2022/04/21 08:40:18;;;;;;;8.75;5.70;;;10.00;99.90;;;;;;5088446;28;20515;-79
2022/04/21 08:42:44;;;;;;;10.68;5.88;;;10.10;99.90;;;;;;5086129;28;20311;-76
2022/04/21 08:45:12;;;;;;;9.52;6.43;;;10.20;99.90;;;;;;5099146;28;20039;-82
2022/04/21 08:47:46;;;;;;;15.18;6.35;;;10.30;99.90;;;;;;5088510;28;20366;-80
2022/04/21 08:50:12;;;;;;;;;;;10.40;99.90;;;;;;5088461;28;20024;-81
2022/04/21 08:52:40;;;;;;;12.60;6.20;;;10.40;99.90;;;;;;5102135;28;19903;-78
2022/04/21 08:55:07;;;;;;;9.55;6.50;;;10.50;99.90;;;;;;5086369;28;20125;-79
2022/04/21 08:57:35;;;;;;;9.30;6.10;;;;;;;;;;5085948;28;20108;-80
2022/04/21 09:00:02;;;;;;;11.27;6.35;;;10.70;99.90;;;;;;5091542;28;20373;-77
2022/04/21 09:02:44;;;;;;;9.15;6.38;;;10.90;99.90;;;;;;5090159;28;20028;-78
2022/04/21 09:05:10;;;;;;;9.88;6.25;;;11.00;99.90;;;;;;5084290;28;20119;-78
2022/04/21 09:08:01;;;;;;;8.95;6.03;;;11.10;99.90;;;;;;5095674;28;20049;-81
2022/04/21 09:10:28;;;;;;;11.13;6.00;;;11.20;99.90;;;;;;5087135;28;20154;-78
2022/04/21 09:12:56;;;;;;;8.20;5.70;;;11.40;99.90;;;;;;5086776;28;20031;-80
2022/04/21 09:15:24;;;;;;;11.90;5.72;;;11.40;99.90;;;;;;5090301;28;20168;-79
2022/04/21 09:17:52;;;;;;;9.25;6.15;;;11.50;99.90;;;;;;5091344;28;20506;-77
2022/04/21 09:20:20;;;;;;;13.32;6.43;;;11.50;99.90;;;;;;5089610;28;20047;-81
2022/04/21 09:23:10;;;;;;;16.50;5.78;;;11.50;99.90;;;;;;5087865;28;20032;-77
2022/04/21 09:25:49;;;;;;;8.88;5.90;;;11.70;99.90;;;;;;5071225;28;20043;-79
2022/04/21 09:28:29;;;;;;;15.77;6.07;;;12.00;99.90;;;;;;5086288;28;20026;-79
2022/04/21 09:30:57;;;;;;;13.02;6.05;;;12.10;99.90;;;;;;5090313;28;20093;-78
2022/04/21 09:33:30;;;;;;;8.18;5.70;;;12.30;99.90;;;;;;5098473;28;20027;-78
2022/04/21 09:36:06;;;;;;;8.52;5.40;;;12.50;99.90;;;;;;5098765;28;20028;-77
2022/04/21 09:38:36;;;;;;;11.32;5.85;;;12.70;99.90;;;;;;5098532;28;20107;-79
2022/04/21 09:41:12;;;;;;;10.27;5.65;;;12.80;99.90;;;;;;5097209;28;20431;-78
2022/04/21 09:43:42;;;;;;;10.55;5.53;;;12.70;99.90;;;;;;5082120;28;20020;-76
2022/04/21 09:46:16;;;;;;;8.98;5.25;;;12.70;99.90;;;;;;5096251;28;20035;-77
2022/04/21 09:48:43;;;;;;;10.02;4.95;;;12.70;99.90;;;;;;5089299;28;20028;-80
2022/04/21 09:51:17;;;;;;;10.27;5.60;;;12.70;99.90;;;;;;5081834;28;20439;-77
2022/04/21 09:53:59;;;;;;;9.65;5.20;;;12.60;99.90;;;;;;5087782;28;20510;-77
2022/04/21 09:56:33;;;;;;;7.43;5.22;;;12.70;99.90;;;;;;5086833;28;20027;-75
2022/04/21 09:59:04;;;;;;;7.22;5.18;;;12.60;99.90;;;;;;4733186;28;10000291;-75
2022/04/21 10:01:30;;;;;;;8.23;5.25;;;12.60;99.90;;;;;;5093673;28;20130;-75
2022/04/21 10:03:56;;;;;;;6.28;5.05;;;;;;;;;;5084771;28;20384;-74
2022/04/21 10:06:23;;;;;;;7.22;5.25;;;12.70;99.70;;;;;;5087313;28;20064;-74
2022/04/21 10:08:50;;;;;;;10.32;5.50;;;12.70;99.90;;;;;;5092498;28;20069;-75
2022/04/21 10:11:23;;;;;;;5.93;5.30;;;12.70;99.80;;;;;;5084409;28;20339;-74
2022/04/21 10:13:53;;;;;;;7.95;5.18;;;12.70;99.90;;;;;;5086489;28;20081;-75
2022/04/21 10:16:19;;;;;;;7.72;5.43;;;12.70;99.90;;;;;;5087544;28;20028;-74
2022/04/21 10:18:51;;;;;;;9.35;5.20;;;12.90;99.90;;;;;;5092027;28;20062;-75
2022/04/21 10:21:31;;;;;;;8.07;4.70;;;12.90;99.40;;;;;;5065598;28;20047;-74
2022/04/21 10:23:58;;;;;;;10.45;5.63;;;12.90;99.60;;;;;;5082823;28;20138;-75
2022/04/21 10:26:38;;;;;;;7.28;5.50;;;12.80;99.60;;;;;;5093441;28;20352;-75
2022/04/21 10:29:10;;;;;;;12.82;5.38;;;12.70;99.20;;;;;;5084012;28;20039;-76
2022/04/21 10:31:43;;;;;;;10.15;5.40;;;12.70;99.10;;;;;;5085744;28;20036;-76
2022/04/21 10:34:09;;;;;;;7.70;5.35;;;12.70;99.70;;;;;;5083417;28;20034;-76
2022/04/21 10:36:35;;;;;;;8.20;5.40;;;12.70;99.90;;;;;;5081190;28;20343;-76
2022/04/21 10:39:22;;;;;;;11.05;4.72;;;12.70;99.80;;;;;;5081619;28;20426;-79
2022/04/21 10:42:04;;;;;;;11.90;5.28;;;12.70;99.90;;;;;;5093493;28;20028;-79
2022/04/21 10:44:30;;;;;;;9.90;5.53;;;12.70;99.90;;;;;;5082418;28;20396;-79
2022/04/21 10:47:30;;;;;;;10.10;5.53;;;12.70;99.70;;;;;;5083779;28;20039;-79
2022/04/21 10:50:16;;;;;;;8.52;5.20;;;12.60;99.70;;;;;;5086880;28;20516;-79
2022/04/21 10:57:58;;;;;;;9.82;5.20;;;12.60;99.80;;;;;;5088410;28;20409;-79
2022/04/21 11:00:28;;;;;;;9.18;5.20;;;12.60;99.90;;;;;;5087055;28;20028;-78
2022/04/21 11:03:05;;;;;;;10.98;4.88;;;12.60;99.90;;;;;;5092661;28;20023;-79
2022/04/21 11:05:33;;;;;;;10.57;5.70;;;12.60;99.90;;;;;;5087691;28;20027;-77
2022/04/21 11:08:10;;;;;;;9.10;4.80;;;12.80;99.90;;;;;;5092986;28;20051;-79
2022/04/21 11:10:38;;;;;;;5.57;4.80;;;12.90;99.90;;;;;;5090332;28;20057;-79
2022/04/21 11:13:09;;;;;;;10.77;4.70;;;13.00;99.90;;;;;;5087402;28;20557;-76
2022/04/21 11:15:53;;;;;;;8.98;5.10;;;13.00;99.90;;;;;;5086148;28;20032;-73
2022/04/21 11:18:30;;;;;;;9.07;5.05;;;13.00;99.90;;;;;;5085300;28;20028;-74
2022/04/21 11:21:23;;;;;;;12.35;5.90;;;13.00;99.90;;;;;;5085091;28;20213;-72
2022/04/21 11:23:48;;;;;;;11.18;5.78;;;13.10;99.90;;;;;;5087530;28;20032;-75
2022/04/21 11:26:14;;;;;;;8.00;5.70;;;13.10;99.90;;;;;;5093210;28;20028;-74
2022/04/21 11:28:46;;;;;;;8.82;5.60;;;13.10;99.90;;;;;;5095503;28;20372;-74
2022/04/21 11:31:13;;;;;;;19.55;5.90;;;13.00;99.90;;;;;;5090703;28;20048;-73
2022/04/21 11:33:39;;;;;;;9.35;5.55;;;13.00;99.90;;;;;;5100845;28;20032;-74
2022/04/21 11:36:10;;;;;;;15.27;6.15;;;12.90;99.90;;;;;;5089894;28;20484;-73
2022/04/21 11:38:39;;;;;;;10.82;6.13;;;12.90;99.90;;;;;;5074800;28;20106;-72
2022/04/21 11:41:07;;;;;;;14.27;6.25;;;12.90;99.90;;;;;;5092476;28;20039;-73
2022/04/21 11:43:33;;;;;;;11.90;5.68;;;12.90;99.90;;;;;;5088457;28;20372;-75
2022/04/21 11:46:00;;;;;;;13.85;6.20;;;13.00;99.90;;;;;;5085394;28;20027;-72
2022/04/21 11:48:37;;;;;;;8.93;5.50;;;13.10;99.90;;;;;;5093320;28;20108;-73
2022/04/21 11:51:04;;;;;;;9.95;5.40;;;13.20;99.90;;;;;;5089125;28;20502;-74
2022/04/21 11:53:41;;;;;;;8.73;5.70;;;13.40;99.90;;;;;;5098176;28;20143;-72
2022/04/21 11:56:08;;;;;;;10.73;5.57;;;13.40;99.90;;;;;;5093773;28;20087;-73
2022/04/21 11:58:36;;;;;;;11.18;5.75;;;13.30;99.90;;;;;;5093202;28;20061;-75
2022/04/21 12:06:38;;;;;;;8.55;6.38;;;13.00;99.90;;;;;;5087196;28;20061;-74
2022/04/21 12:09:05;;;;;;;10.30;6.30;;;12.90;99.90;;;;;;5087225;28;20533;-75
2022/04/21 12:11:31;;;;;;;11.18;6.75;;;12.90;99.90;;;;;;5085456;28;20036;-74
2022/04/21 12:13:57;;;;;;;15.23;6.38;;;12.90;99.90;;;;;;5088453;28;23376;-75
2022/04/21 12:16:35;;;;;;;19.23;6.50;;;12.90;99.90;;;;;;5089007;28;20024;-75
2022/04/21 12:19:11;;;;;;;12.75;6.72;;;13.00;99.90;;;;;;5088157;28;20200;-75
2022/04/21 12:21:37;;;;;;;11.82;6.38;;;13.00;99.90;;;;;;5086072;28;20582;-73
2022/04/21 12:24:20;;;;;;;11.77;6.15;;;13.00;99.90;;;;;;5089666;28;20531;-74
2022/04/21 12:26:53;;;;;;;10.68;6.22;;;13.20;99.90;;;;;;5086508;28;20156;-71
2022/04/21 12:29:21;;;;;;;11.55;6.78;;;13.30;99.90;;;;;;5091692;28;20482;-72
2022/04/21 12:31:53;;;;;;;12.27;6.55;;;13.30;99.90;;;;;;5089823;28;20044;-71
2022/04/21 12:34:29;;;;;;;11.15;6.30;;;13.40;99.90;;;;;;5090519;28;20065;-72
2022/04/21 12:37:06;;;;;;;9.68;5.82;;;13.50;99.90;;;;;;5101335;28;20263;-71
2022/04/21 12:39:32;;;;;;;11.00;6.07;;;13.50;99.90;;;;;;5085554;28;20028;-73
2022/04/21 12:42:00;;;;;;;8.45;6.00;;;13.60;99.90;;;;;;5102429;28;20035;-73
2022/04/21 12:44:25;;;;;;;10.73;6.20;;;13.60;99.90;;;;;;5097084;28;20563;-74
2022/04/21 12:47:03;;;;;;;10.30;5.80;;;13.50;99.90;;;;;;5094425;28;20142;-75
2022/04/21 12:49:51;;;;;;;11.35;5.40;;;13.60;99.90;;;;;;5087363;28;20032;-76
2022/04/21 12:52:48;;;;;;;11.45;5.57;;;13.60;99.90;;;;;;5091919;28;20070;-74
2022/04/21 12:55:19;;;;;;;7.65;5.85;;;13.90;99.90;;;;;;5073077;28;20509;-72
2022/04/21 12:58:00;;;;;;;9.63;6.05;;;14.10;99.90;;;;;;5100333;28;20027;-74
2022/04/21 13:00:27;;;;;;;9.30;5.75;;;14.30;99.80;;;;;;5092347;28;20036;-74
2022/04/21 13:02:52;;;;;;;12.27;6.00;;;14.50;98.70;;;;;;5095840;28;20107;-74
2022/04/21 13:05:18;;;;;;;7.35;4.60;;;;;;;;;;5090674;28;20028;-73
2022/04/21 13:07:44;;;;;;;8.38;5.15;;;14.90;99.90;;;;;;5088203;28;20557;-73
2022/04/21 13:10:09;;;;;;;14.25;5.50;;;14.80;99.90;;;;;;5087257;28;20021;-72
2022/04/21 13:12:35;;;;;;;7.88;4.95;;;14.70;99.90;;;;;;5097638;28;20059;-73
2022/04/21 13:15:04;;;;;;;9.88;4.63;;;14.80;99.80;;;;;;5085080;28;20035;-74
2022/04/21 13:17:30;;;;;;;5.97;4.60;;;14.80;99.90;;;;;;5084740;28;20032;-71
2022/04/21 13:19:56;;;;;;;9.75;4.80;;;14.90;99.90;;;;;;5094999;28;20428;-75
2022/04/21 13:22:21;;;;;;;9.35;4.68;;;14.80;99.90;;;;;;5094075;28;20634;-75
2022/04/21 13:24:47;;;;;;;12.52;4.68;;;14.90;99.90;;;;;;5082101;28;20389;-73
2022/04/21 13:27:16;;;;;;;10.18;4.80;;;14.80;99.90;;;;;;5098844;28;20511;-75
2022/04/21 13:29:44;;;;;;;7.63;4.75;;;14.80;99.70;;;;;;5096379;28;20099;-75
2022/04/21 13:34:54;;;;;;;8.13;4.18;;;14.90;99.90;;;;;;5082505;28;20086;-71
2022/04/21 13:37:20;;;;;;;6.15;4.32;;;14.80;99.90;;;;;;5093522;28;20024;-73
2022/04/21 13:39:46;;;;;;;6.93;4.75;;;14.90;99.90;;;;;;5094816;28;20115;-71
2022/04/21 13:42:12;;;;;;;9.18;4.60;;;14.80;99.70;;;;;;5084912;28;20032;-71
2022/04/21 13:44:38;;;;;;;7.38;4.55;;;14.90;99.90;;;;;;5093181;28;20034;-74
2022/04/21 13:47:05;;;;;;;10.95;5.00;;;14.90;99.90;;;;;;5081041;28;20032;-71
2022/04/21 13:49:32;;;;;;;6.68;4.60;;;14.90;99.90;;;;;;5087723;28;20020;-72